This is the latest recevied weather packets stored in our database for station/object Ad4UU. If no packets are shown the sender has not sent any weather packets the latest 10 day(s).
| Time | Temp. | Humidity | Pressure | Rain* | Wind** | Luminosity | Snow |
|---|---|---|---|---|---|---|---|
| 1777843231 | 27.22° C | 44% | 1017.2 hPa | 0 mm | - | - | - |
| 1777842630 | 27.22° C | 44% | 1017.1 hPa | 0 mm | - | - | - |
| 1777841145 | 27.22° C | 44% | 1017.3 hPa | 0 mm | - | - | - |
| 1777840262 | 26.67° C | 46% | 1017.4 hPa | 0 mm | - | - | - |
| 1777839631 | 26.67° C | 45% | 1017.5 hPa | 0 mm | - | - | - |
| 1777838449 | 26.67° C | 46% | 1017.9 hPa | 0 mm | - | - | - |
| 1777837830 | 26.67° C | 45% | 1017.8 hPa | 0 mm | - | - | - |
| 1777837547 | 26.67° C | 44% | 1017.9 hPa | 0 mm | - | - | - |
| 1777836331 | 26.67° C | 47% | 1018.3 hPa | 0 mm | - | - | - |
| 1777836033 | 26.67° C | 45% | 1018.4 hPa | 0 mm | - | - | - |
| 1777835748 | 26.67° C | 45% | 1018.4 hPa | 0 mm | - | - | - |
| 1777832730 | 25° C | 47% | 1019 hPa | 0 mm | - | - | - |
| 1777831253 | 24.44° C | 54% | 1019.3 hPa | 0 mm | - | - | - |
| 1777829129 | 24.44° C | 57% | 1019.7 hPa | 0 mm | - | - | - |
| 1777828550 | 24.44° C | 56% | 1020 hPa | 0 mm | - | - | - |
| 1777827930 | 23.89° C | 54% | 1020 hPa | 0 mm | - | - | - |
| 1777827648 | 23.89° C | 57% | 1020 hPa | 0 mm | - | - | - |
| 1777824948 | 22.78° C | 65% | 1020.7 hPa | 0 mm | - | - | - |
| 1777823167 | 22.22° C | 65% | 1020.7 hPa | 0 mm | - | - | - |
| 1777821030 | 21.11° C | 71% | 1020.4 hPa | 0 mm | - | - | - |
| 1777820730 | 21.11° C | 71% | 1020.1 hPa | 0 mm | - | - | - |
| 1777819233 | 20.56° C | 75% | 1020.3 hPa | 0 mm | - | - | - |
| 1777818930 | 20° C | 74% | 1020.4 hPa | 0 mm | - | - | - |
| 1777818331 | 19.44° C | 74% | 1020.3 hPa | 0 mm | - | - | - |
| 1777818030 | 19.44° C | 74% | 1020.3 hPa | 0 mm | - | - | - |
* Rain latest hour (hover to see other rain measurements)
** Current wind speed in m/s (hover to see current wind gust speed)